createdAt,value
2018-01-23T00:00:25.060Z,961.37
2018-01-23T00:01:25.056Z,961.35
2018-01-23T00:02:25.080Z,961.38
2018-01-23T00:03:25.050Z,961.36
2018-01-23T00:04:25.036Z,961.39
2018-01-23T00:05:25.030Z,961.32
2018-01-23T00:06:25.024Z,961.35
2018-01-23T00:07:25.020Z,961.35
2018-01-23T00:08:25.013Z,961.37
2018-01-23T00:09:25.008Z,961.40
2018-01-23T00:10:24.998Z,961.41
2018-01-23T00:11:24.995Z,961.46
2018-01-23T00:12:24.990Z,961.45
2018-01-23T00:13:24.986Z,961.47
2018-01-23T00:14:24.978Z,961.51
2018-01-23T00:15:24.970Z,961.58
2018-01-23T00:16:24.966Z,961.58
2018-01-23T00:17:24.961Z,961.52
2018-01-23T00:18:24.954Z,961.45
2018-01-23T00:19:24.950Z,961.51
2018-01-23T00:20:24.942Z,961.58
2018-01-23T00:21:24.938Z,961.60
2018-01-23T00:22:24.949Z,961.61
2018-01-23T00:23:24.924Z,961.58
2018-01-23T00:24:24.923Z,961.58
2018-01-23T00:25:24.915Z,961.63
2018-01-23T00:26:24.910Z,961.65
2018-01-23T00:27:24.904Z,961.64
2018-01-23T00:28:24.898Z,961.67
2018-01-23T00:29:24.891Z,961.75
2018-01-23T00:30:24.884Z,961.71
2018-01-23T00:31:24.878Z,961.73
2018-01-23T00:32:24.877Z,961.77
2018-01-23T00:33:24.874Z,961.77
2018-01-23T00:34:24.861Z,961.73
2018-01-23T00:35:24.856Z,961.72
2018-01-23T00:36:24.848Z,961.69
2018-01-23T00:37:24.845Z,961.76
2018-01-23T00:38:24.838Z,961.75
2018-01-23T00:39:24.833Z,961.86
2018-01-23T00:40:24.831Z,961.81
2018-01-23T00:41:24.820Z,961.90
2018-01-23T00:42:24.814Z,961.90
2018-01-23T00:43:24.811Z,961.92
2018-01-23T00:44:24.803Z,961.93
2018-01-23T00:45:24.798Z,961.94
2018-01-23T00:46:24.792Z,961.95
2018-01-23T00:47:24.785Z,961.97
2018-01-23T00:48:24.780Z,962.00
2018-01-23T00:49:24.775Z,962.01
2018-01-23T00:50:24.768Z,962.00
2018-01-23T00:51:24.762Z,962.03
2018-01-23T00:52:24.755Z,962.04
2018-01-23T00:53:24.752Z,962.06
2018-01-23T00:54:24.744Z,962.15
2018-01-23T00:55:24.740Z,962.09
2018-01-23T00:56:24.736Z,962.18
2018-01-23T00:57:24.727Z,962.18
2018-01-23T00:58:24.723Z,962.20
2018-01-23T00:59:24.716Z,962.31
2018-01-23T01:00:24.709Z,962.27
2018-01-23T01:01:24.704Z,962.32
2018-01-23T01:02:24.699Z,962.35
2018-01-23T01:03:24.692Z,962.37
2018-01-23T01:04:24.688Z,962.38
2018-01-23T01:05:24.688Z,962.39
2018-01-23T01:06:24.677Z,962.43
2018-01-23T01:07:24.671Z,962.44
2018-01-23T01:08:24.664Z,962.44
2018-01-23T01:09:24.661Z,962.49
2018-01-23T01:10:24.654Z,962.45
2018-01-23T01:11:24.648Z,962.57
2018-01-23T01:12:24.641Z,962.61
2018-01-23T01:13:24.635Z,962.61
2018-01-23T01:14:24.629Z,962.59
2018-01-23T01:15:24.623Z,962.64
2018-01-23T01:16:24.616Z,962.66
2018-01-23T01:17:24.612Z,962.63
2018-01-23T01:18:24.607Z,962.66
2018-01-23T01:19:24.606Z,962.68
2018-01-23T01:20:24.596Z,962.68
2018-01-23T01:21:24.590Z,962.68
2018-01-23T01:22:24.588Z,962.67
2018-01-23T01:23:24.584Z,962.66
2018-01-23T01:24:24.572Z,962.62
2018-01-23T01:25:24.564Z,962.58
2018-01-23T01:26:24.561Z,962.51
2018-01-23T01:27:24.555Z,962.60
2018-01-23T01:28:24.550Z,962.62
2018-01-23T01:29:24.546Z,962.65
2018-01-23T01:30:24.538Z,962.70
2018-01-23T01:31:24.532Z,962.69
2018-01-23T01:32:24.525Z,962.70
2018-01-23T01:33:24.529Z,962.69
2018-01-23T01:34:24.516Z,962.67
2018-01-23T01:35:24.510Z,962.69
2018-01-23T01:36:24.502Z,962.69
2018-01-23T01:37:24.501Z,962.68
2018-01-23T01:38:24.492Z,962.72
2018-01-23T01:39:24.487Z,962.73
2018-01-23T01:40:24.482Z,962.79
2018-01-23T01:41:24.481Z,962.84
2018-01-23T01:42:24.470Z,962.84
2018-01-23T01:43:24.467Z,962.91
2018-01-23T01:44:24.458Z,962.94
2018-01-23T01:45:24.452Z,963.01
2018-01-23T01:46:24.446Z,963.04
2018-01-23T01:47:24.440Z,963.13
2018-01-23T01:48:24.436Z,963.11
2018-01-23T01:49:24.431Z,963.17
2018-01-23T01:50:24.425Z,963.14
2018-01-23T01:51:24.420Z,963.18
2018-01-23T01:52:24.412Z,963.22
2018-01-23T01:53:24.410Z,963.18
2018-01-23T01:54:24.398Z,963.22
2018-01-23T01:55:24.393Z,963.19
2018-01-23T01:56:24.389Z,963.22
2018-01-23T01:57:24.384Z,963.19
2018-01-23T01:58:24.380Z,963.23
2018-01-23T01:59:24.373Z,963.25
2018-01-23T02:00:24.365Z,963.32
2018-01-23T02:01:24.380Z,963.28
2018-01-23T02:02:24.353Z,963.29
2018-01-23T02:03:24.348Z,963.25
2018-01-23T02:04:24.345Z,963.22
2018-01-23T02:05:24.342Z,963.27
2018-01-23T02:06:24.334Z,963.36
2018-01-23T02:07:24.345Z,963.29
2018-01-23T02:08:24.322Z,963.33
2018-01-23T02:09:24.316Z,963.29
2018-01-23T02:10:24.308Z,963.28
2018-01-23T02:11:24.303Z,963.30
2018-01-23T02:12:24.300Z,963.30
2018-01-23T02:13:24.292Z,963.33
2018-01-23T02:14:24.287Z,963.45
2018-01-23T02:15:24.282Z,963.44
2018-01-23T02:16:24.325Z,963.48
2018-01-23T02:17:24.279Z,963.45
2018-01-23T02:18:24.264Z,963.46
2018-01-23T02:19:24.256Z,963.42
2018-01-23T02:20:24.252Z,963.42
2018-01-23T02:21:24.250Z,963.37
2018-01-23T02:22:24.241Z,963.41
2018-01-23T02:23:24.235Z,963.37
2018-01-23T02:24:24.229Z,963.42
2018-01-23T02:25:24.225Z,963.49
2018-01-23T02:26:24.221Z,963.47
2018-01-23T02:27:24.212Z,963.45
2018-01-23T02:28:24.207Z,963.52
2018-01-23T02:29:24.202Z,963.56
2018-01-23T02:30:24.196Z,963.56
2018-01-23T02:31:24.189Z,963.55
2018-01-23T02:32:24.185Z,963.56
2018-01-23T02:33:24.178Z,963.56
2018-01-23T02:34:24.171Z,963.53
2018-01-23T02:35:24.166Z,963.55
2018-01-23T02:36:24.161Z,963.53
2018-01-23T02:37:24.155Z,963.48
2018-01-23T02:38:24.152Z,963.49
2018-01-23T02:39:24.145Z,963.57
2018-01-23T02:40:24.144Z,963.66
2018-01-23T02:41:24.133Z,963.66
2018-01-23T02:42:24.126Z,963.68
2018-01-23T02:43:24.120Z,963.65
2018-01-23T02:44:24.116Z,963.68
2018-01-23T02:45:24.142Z,963.64
2018-01-23T02:46:24.163Z,963.62
2018-01-23T02:47:24.100Z,963.57
2018-01-23T02:48:24.093Z,963.59
2018-01-23T02:49:24.099Z,963.60
2018-01-23T02:50:24.082Z,963.64
2018-01-23T02:51:24.076Z,963.64
2018-01-23T02:52:24.125Z,963.73
2018-01-23T02:53:24.065Z,963.82
2018-01-23T02:54:24.109Z,963.78
2018-01-23T02:55:24.148Z,963.74
2018-01-23T02:56:24.072Z,963.70
2018-01-23T02:57:24.077Z,963.68
2018-01-23T02:58:24.083Z,963.77
2018-01-23T02:59:24.099Z,963.76
2018-01-23T03:00:24.024Z,963.81
2018-01-23T03:01:24.020Z,963.78
2018-01-23T03:02:24.017Z,963.76
2018-01-23T03:03:24.023Z,963.78
2018-01-23T03:04:24.024Z,963.79
2018-01-23T03:05:24.039Z,963.79
2018-01-23T03:06:24.039Z,963.86
2018-01-23T03:07:24.051Z,963.88
2018-01-23T03:08:24.031Z,963.91
2018-01-23T03:09:24.067Z,963.86
2018-01-23T03:10:24.064Z,963.84
2018-01-23T03:11:24.078Z,963.80
2018-01-23T03:12:24.086Z,963.82
2018-01-23T03:13:23.983Z,963.83
2018-01-23T03:14:24.047Z,963.89
2018-01-23T03:15:23.979Z,963.94
2018-01-23T03:16:24.005Z,963.99
2018-01-23T03:17:24.015Z,963.99
2018-01-23T03:18:23.976Z,963.96
2018-01-23T03:19:24.006Z,963.94
2018-01-23T03:20:24.033Z,963.98
2018-01-23T03:21:24.048Z,963.99
2018-01-23T03:22:24.030Z,963.98
2018-01-23T03:23:24.029Z,963.98
2018-01-23T03:24:24.082Z,963.99
2018-01-23T03:25:23.955Z,963.97
2018-01-23T03:26:23.957Z,964.02
2018-01-23T03:27:23.970Z,964.07
2018-01-23T03:28:23.874Z,964.00
2018-01-23T03:29:23.992Z,963.99
2018-01-23T03:30:23.984Z,964.04
2018-01-23T03:31:24.031Z,964.03
2018-01-23T03:32:24.034Z,964.03
2018-01-23T03:33:24.020Z,964.03
2018-01-23T03:34:24.103Z,964.05
2018-01-23T03:35:24.096Z,964.12
2018-01-23T03:36:23.996Z,964.11
2018-01-23T03:37:24.048Z,964.19
2018-01-23T03:38:24.048Z,964.16
2018-01-23T03:39:23.971Z,964.20
2018-01-23T03:40:23.972Z,964.19
2018-01-23T03:41:23.975Z,964.15
2018-01-23T03:42:23.983Z,964.18
2018-01-23T03:43:23.945Z,964.10
2018-01-23T03:44:23.996Z,964.13
2018-01-23T03:45:23.999Z,964.13
2018-01-23T03:46:23.968Z,964.16
2018-01-23T03:47:24.021Z,964.21
2018-01-23T03:48:23.981Z,964.23
2018-01-23T03:49:23.989Z,964.24
2018-01-23T03:50:23.994Z,964.24
2018-01-23T03:51:23.940Z,964.28
2018-01-23T03:52:23.948Z,964.29
2018-01-23T03:53:23.917Z,964.22
2018-01-23T03:54:23.918Z,964.27
2018-01-23T03:55:23.935Z,964.23
2018-01-23T03:56:23.939Z,964.10
2018-01-23T03:57:23.938Z,964.34
2018-01-23T03:58:23.987Z,964.31
2018-01-23T03:59:23.965Z,964.33
2018-01-23T04:00:24.004Z,964.31
2018-01-23T04:01:24.017Z,964.34
2018-01-23T04:02:23.957Z,964.38
2018-01-23T04:03:23.986Z,964.37
2018-01-23T04:04:23.927Z,964.39
2018-01-23T04:05:23.937Z,964.39
2018-01-23T04:06:23.911Z,964.42
2018-01-23T04:07:23.949Z,964.44
2018-01-23T04:08:23.822Z,964.43
2018-01-23T04:09:23.847Z,964.47
2018-01-23T04:10:23.927Z,964.52
2018-01-23T04:11:23.753Z,964.57
2018-01-23T04:12:23.732Z,964.54
2018-01-23T04:13:23.707Z,964.55
2018-01-23T04:14:23.686Z,964.60
2018-01-23T04:15:23.593Z,964.56
2018-01-23T04:16:23.585Z,964.60
2018-01-23T04:17:23.931Z,964.61
2018-01-23T04:18:23.903Z,964.60
2018-01-23T04:19:23.605Z,964.63
2018-01-23T04:20:23.560Z,964.64
2018-01-23T04:21:23.896Z,964.65
2018-01-23T04:22:23.905Z,964.68
2018-01-23T04:23:23.544Z,964.71
2018-01-23T04:24:23.551Z,964.68
2018-01-23T04:25:23.531Z,964.74
2018-01-23T04:26:23.528Z,964.72
2018-01-23T04:27:23.521Z,964.78
2018-01-23T04:28:23.517Z,964.80
2018-01-23T04:29:23.526Z,964.79
2018-01-23T04:30:23.852Z,964.84
2018-01-23T04:31:23.498Z,964.84
2018-01-23T04:32:23.495Z,964.83
2018-01-23T04:33:23.505Z,964.87
2018-01-23T04:34:23.484Z,964.85
2018-01-23T04:35:23.482Z,964.75
2018-01-23T04:36:23.471Z,964.78
2018-01-23T04:37:23.465Z,964.78
2018-01-23T04:38:23.457Z,964.78
2018-01-23T04:39:23.453Z,964.86
2018-01-23T04:40:23.454Z,964.82
2018-01-23T04:41:23.442Z,964.82
2018-01-23T04:42:23.435Z,964.83
2018-01-23T04:43:23.433Z,964.84
2018-01-23T04:44:23.426Z,964.81
2018-01-23T04:45:23.417Z,964.86
2018-01-23T04:46:23.415Z,964.90
2018-01-23T04:47:23.405Z,964.94
2018-01-23T04:48:23.400Z,964.98
2018-01-23T04:49:23.393Z,964.96
2018-01-23T04:50:23.388Z,965.08
2018-01-23T04:51:23.382Z,965.05
2018-01-23T04:52:23.379Z,965.09
2018-01-23T04:53:23.371Z,965.10
2018-01-23T04:54:23.369Z,965.12
2018-01-23T04:55:23.357Z,965.14
2018-01-23T04:56:23.354Z,965.14
2018-01-23T04:57:23.347Z,965.18
2018-01-23T04:58:23.339Z,965.18
2018-01-23T04:59:23.332Z,965.21
2018-01-23T05:00:23.329Z,965.20
2018-01-23T05:01:23.323Z,965.20
2018-01-23T05:02:23.318Z,965.20
2018-01-23T05:03:23.310Z,965.21
2018-01-23T05:04:23.305Z,965.21
2018-01-23T05:05:23.300Z,965.25
2018-01-23T05:06:23.295Z,965.21
2018-01-23T05:07:23.288Z,965.23
2018-01-23T05:08:23.283Z,965.24
2018-01-23T05:09:23.276Z,965.27
2018-01-23T05:10:23.268Z,965.28
2018-01-23T05:11:23.265Z,965.31
2018-01-23T05:12:23.262Z,965.34
2018-01-23T05:13:23.254Z,965.39
2018-01-23T05:14:23.249Z,965.36
2018-01-23T05:15:23.242Z,965.37
2018-01-23T05:16:23.235Z,965.43
2018-01-23T05:17:23.230Z,965.39
2018-01-23T05:18:23.230Z,965.40
2018-01-23T05:19:23.218Z,965.43
2018-01-23T05:20:23.216Z,965.42
2018-01-23T05:21:23.207Z,965.46
2018-01-23T05:22:23.200Z,965.46
2018-01-23T05:23:23.195Z,965.45
2018-01-23T05:24:23.190Z,965.48
2018-01-23T05:25:23.183Z,965.46
2018-01-23T05:26:23.177Z,965.52
2018-01-23T05:27:23.172Z,965.47
2018-01-23T05:28:23.166Z,965.49
2018-01-23T05:29:23.159Z,965.49
2018-01-23T05:30:23.156Z,965.55
2018-01-23T05:31:23.149Z,965.49
2018-01-23T05:32:23.146Z,965.51
2018-01-23T05:33:23.138Z,965.57
2018-01-23T05:34:23.131Z,965.58
2018-01-23T05:35:23.125Z,965.64
2018-01-23T05:36:23.120Z,965.64
2018-01-23T05:37:23.113Z,965.59
2018-01-23T05:38:23.107Z,965.67
2018-01-23T05:39:23.102Z,965.68
2018-01-23T05:40:23.096Z,965.67
2018-01-23T05:41:23.097Z,965.66
2018-01-23T05:42:23.084Z,965.64
2018-01-23T05:43:23.079Z,965.62
2018-01-23T05:44:23.091Z,965.67
2018-01-23T05:45:23.068Z,965.69
2018-01-23T05:46:23.062Z,965.68
2018-01-23T05:47:23.057Z,965.70
2018-01-23T05:48:23.054Z,965.69
2018-01-23T05:49:23.045Z,965.68
2018-01-23T05:50:23.039Z,965.76
2018-01-23T05:51:23.060Z,965.75
2018-01-23T05:52:23.028Z,965.80
2018-01-23T05:53:23.025Z,965.80
2018-01-23T05:54:23.015Z,965.84
2018-01-23T05:55:23.039Z,965.82
2018-01-23T05:56:23.028Z,965.88
2018-01-23T05:57:22.998Z,965.86
2018-01-23T05:58:22.997Z,965.84
2018-01-23T05:59:23.013Z,965.93
2018-01-23T06:00:22.982Z,965.94
2018-01-23T06:01:22.976Z,966.01
2018-01-23T06:02:22.968Z,965.98
2018-01-23T06:03:22.965Z,966.00
2018-01-23T06:04:22.962Z,966.03
2018-01-23T06:05:22.951Z,966.02
2018-01-23T06:06:22.946Z,965.99
2018-01-23T06:07:22.957Z,966.00
2018-01-23T06:08:22.938Z,966.00
2018-01-23T06:09:22.934Z,965.98
2018-01-23T06:10:22.944Z,965.96
2018-01-23T06:11:22.919Z,966.01
2018-01-23T06:12:22.911Z,966.04
2018-01-23T06:13:22.906Z,966.00
2018-01-23T06:14:22.907Z,966.10
2018-01-23T06:15:22.896Z,966.07
2018-01-23T06:16:22.910Z,966.08
2018-01-23T06:17:22.896Z,966.14
2018-01-23T06:18:22.877Z,966.13
2018-01-23T06:19:22.871Z,966.16
2018-01-23T06:20:22.866Z,966.18
2018-01-23T06:21:22.863Z,966.20
2018-01-23T06:22:22.856Z,966.20
2018-01-23T06:23:22.849Z,966.26
2018-01-23T06:24:22.844Z,966.26
2018-01-23T06:25:22.861Z,966.30
2018-01-23T06:26:22.831Z,966.29
2018-01-23T06:27:22.850Z,966.35
2018-01-23T06:28:22.820Z,966.33
2018-01-23T06:29:22.813Z,966.38
2018-01-23T06:30:22.809Z,966.37
2018-01-23T06:31:22.806Z,966.37
2018-01-23T06:32:22.798Z,966.38
2018-01-23T06:33:22.791Z,966.37
2018-01-23T06:34:22.805Z,966.40
2018-01-23T06:35:22.778Z,966.36
2018-01-23T06:36:22.773Z,966.37
2018-01-23T06:37:22.768Z,966.33
2018-01-23T06:38:22.761Z,966.38
2018-01-23T06:39:22.767Z,966.36
2018-01-23T06:40:22.751Z,966.35
2018-01-23T06:41:22.743Z,966.33
2018-01-23T06:42:22.740Z,966.36
2018-01-23T06:43:22.739Z,966.36
2018-01-23T06:44:22.728Z,966.38
2018-01-23T06:45:22.729Z,966.44
2018-01-23T06:46:22.715Z,966.40
2018-01-23T06:47:22.711Z,966.34
2018-01-23T06:48:22.706Z,966.41
2018-01-23T06:49:22.700Z,966.46
2018-01-23T06:50:22.696Z,966.51
2018-01-23T06:51:22.691Z,966.54
2018-01-23T06:52:22.683Z,966.54
2018-01-23T06:53:22.677Z,966.58
2018-01-23T06:54:22.675Z,966.60
2018-01-23T06:55:22.672Z,966.60
2018-01-23T06:56:22.657Z,966.62
2018-01-23T06:57:22.661Z,966.58
2018-01-23T06:58:22.649Z,966.58
2018-01-23T06:59:22.641Z,966.62
2018-01-23T07:00:22.638Z,966.61
2018-01-23T07:01:22.654Z,966.63
2018-01-23T07:02:22.624Z,966.66
2018-01-23T07:03:22.623Z,966.64
2018-01-23T07:04:22.629Z,966.66
2018-01-23T07:05:22.630Z,966.71
2018-01-23T07:06:22.602Z,966.68
2018-01-23T07:07:22.598Z,966.71
2018-01-23T07:08:22.629Z,966.84
2018-01-23T07:09:22.588Z,966.82
2018-01-23T07:10:22.578Z,966.77
2018-01-23T07:11:22.574Z,966.79
2018-01-23T07:12:22.568Z,966.75
2018-01-23T07:13:22.562Z,966.79
2018-01-23T07:14:22.577Z,966.76
2018-01-23T07:15:22.550Z,966.77
2018-01-23T07:16:22.544Z,966.78
2018-01-23T07:17:22.537Z,966.75
2018-01-23T07:18:22.533Z,966.80
2018-01-23T07:19:22.527Z,966.84
2018-01-23T07:20:22.521Z,966.84
2018-01-23T07:21:22.516Z,966.82
2018-01-23T07:22:22.509Z,966.90
2018-01-23T07:23:22.507Z,966.89
2018-01-23T07:24:22.517Z,966.91
2018-01-23T07:25:22.495Z,966.92
2018-01-23T07:26:22.490Z,966.88
2018-01-23T07:27:22.480Z,966.95
2018-01-23T07:28:22.475Z,966.95
2018-01-23T07:29:22.473Z,966.95
2018-01-23T07:30:22.461Z,967.02
2018-01-23T07:31:22.456Z,966.97
2018-01-23T07:32:22.460Z,967.08
2018-01-23T07:33:22.447Z,967.01
2018-01-23T07:34:22.439Z,967.00
2018-01-23T07:35:22.436Z,967.02
2018-01-23T07:36:22.435Z,966.99
2018-01-23T07:37:22.421Z,966.98
2018-01-23T07:38:22.416Z,967.03
2018-01-23T07:39:22.408Z,967.04
2018-01-23T07:40:22.411Z,967.07
2018-01-23T07:41:22.397Z,967.05
2018-01-23T07:42:22.392Z,967.10
2018-01-23T07:43:22.388Z,967.12
2018-01-23T07:44:22.393Z,967.07
2018-01-23T07:45:22.376Z,967.12
2018-01-23T07:46:22.368Z,967.11
2018-01-23T07:47:22.373Z,967.15
2018-01-23T07:48:22.359Z,967.20
2018-01-23T07:49:22.354Z,967.23
2018-01-23T07:50:22.347Z,967.26
2018-01-23T07:51:22.341Z,967.22
2018-01-23T07:52:22.334Z,967.25
2018-01-23T07:53:22.331Z,967.23
2018-01-23T07:54:22.345Z,967.27
2018-01-23T07:55:22.322Z,967.30
2018-01-23T07:56:22.314Z,967.30
2018-01-23T07:57:22.310Z,967.30
2018-01-23T07:58:22.300Z,967.30
2018-01-23T07:59:22.296Z,967.30
2018-01-23T08:00:22.292Z,967.30
2018-01-23T08:01:22.286Z,967.31
2018-01-23T08:02:22.280Z,967.36
2018-01-23T08:03:22.291Z,967.36
2018-01-23T08:04:22.268Z,967.32
2018-01-23T08:05:22.264Z,967.31
2018-01-23T08:06:22.257Z,967.35
2018-01-23T08:07:22.270Z,967.33
2018-01-23T08:08:22.247Z,967.35
2018-01-23T08:09:22.242Z,967.40
2018-01-23T08:10:22.238Z,967.46
2018-01-23T08:11:22.231Z,967.40
2018-01-23T08:12:22.227Z,967.37
2018-01-23T08:13:22.217Z,967.40
2018-01-23T08:14:22.238Z,967.41
2018-01-23T08:15:22.214Z,967.45
2018-01-23T08:16:22.217Z,967.42
2018-01-23T08:17:22.199Z,967.44
2018-01-23T08:18:22.194Z,967.40
2018-01-23T08:19:22.188Z,967.45
2018-01-23T08:20:22.180Z,967.42
2018-01-23T08:21:22.177Z,967.46
2018-01-23T08:22:22.174Z,967.46
2018-01-23T08:23:22.171Z,967.50
2018-01-23T08:24:22.159Z,967.52
2018-01-23T08:25:22.156Z,967.53
2018-01-23T08:26:22.149Z,967.55
2018-01-23T08:27:22.148Z,967.53
2018-01-23T08:28:22.140Z,967.54
2018-01-23T08:29:22.170Z,967.57
2018-01-23T08:30:22.124Z,967.56
2018-01-23T08:31:22.120Z,967.58
2018-01-23T08:32:22.153Z,967.57
2018-01-23T08:33:22.112Z,967.60
2018-01-23T08:34:22.105Z,967.64
2018-01-23T08:35:22.098Z,967.64
2018-01-23T08:36:22.117Z,967.68
2018-01-23T08:37:22.089Z,967.67
2018-01-23T08:38:22.084Z,967.66
2018-01-23T08:39:22.079Z,967.72
2018-01-23T08:40:22.074Z,967.75
2018-01-23T08:41:22.067Z,967.74
2018-01-23T08:42:22.063Z,967.73
2018-01-23T08:43:22.056Z,967.80
2018-01-23T08:44:22.053Z,967.78
2018-01-23T08:45:22.060Z,967.80
2018-01-23T08:46:22.040Z,967.80
2018-01-23T08:47:22.035Z,967.83
2018-01-23T08:48:22.030Z,967.81
2018-01-23T08:49:22.025Z,967.88
2018-01-23T08:50:22.023Z,967.81
2018-01-23T08:51:22.021Z,967.84
2018-01-23T08:52:22.012Z,967.84
2018-01-23T08:53:22.005Z,967.88
2018-01-23T08:54:21.997Z,967.88
2018-01-23T08:55:22.000Z,967.89
2018-01-23T08:56:21.987Z,967.92
2018-01-23T08:57:21.983Z,967.87
2018-01-23T08:58:21.976Z,967.90
2018-01-23T08:59:21.971Z,967.92
2018-01-23T09:00:22.212Z,967.95
2018-01-23T09:01:21.960Z,967.97
2018-01-23T09:02:21.953Z,968.00
2018-01-23T09:03:21.948Z,968.03
2018-01-23T09:04:21.944Z,968.03
2018-01-23T09:05:21.939Z,968.08
2018-01-23T09:06:21.938Z,968.09
2018-01-23T09:07:21.927Z,968.03
2018-01-23T09:08:21.928Z,967.99
2018-01-23T09:09:21.920Z,967.98
2018-01-23T09:10:21.913Z,968.03
2018-01-23T09:11:21.908Z,967.99
2018-01-23T09:12:21.904Z,968.00
2018-01-23T09:13:21.899Z,968.07
2018-01-23T09:14:21.892Z,968.05
2018-01-23T09:15:21.894Z,968.04
2018-01-23T09:16:21.884Z,968.10
2018-01-23T09:17:21.880Z,968.12
2018-01-23T09:18:21.920Z,968.18
2018-01-23T09:19:21.870Z,968.17
2018-01-23T09:20:21.905Z,968.18
2018-01-23T09:21:21.861Z,968.21
2018-01-23T09:22:21.854Z,968.28
2018-01-23T09:23:21.853Z,968.26
2018-01-23T09:24:21.847Z,968.29
2018-01-23T09:25:21.843Z,968.32
2018-01-23T09:26:21.839Z,968.33
2018-01-23T09:27:21.829Z,968.33
2018-01-23T09:28:21.829Z,968.39
2018-01-23T09:29:21.822Z,968.37
2018-01-23T09:30:21.815Z,968.31
2018-01-23T09:31:21.813Z,968.37
2018-01-23T09:33:16.269Z,968.38
2018-01-23T09:34:16.230Z,968.36
2018-01-23T09:36:11.830Z,968.38
2018-01-23T09:37:13.210Z,968.42
2018-01-23T09:39:06.164Z,968.47
2018-01-23T09:40:06.480Z,968.51
2018-01-23T09:42:02.233Z,968.56
2018-01-23T09:43:09.122Z,968.57
2018-01-23T09:45:00.948Z,968.57
2018-01-23T09:52:55.386Z,968.74
2018-01-23T09:53:56.618Z,968.78
2018-01-23T09:56:24.660Z,968.85
2018-01-23T09:56:52.224Z,968.86
2018-01-23T10:00:40.216Z,968.86
2018-01-23T10:03:12.486Z,968.85
2018-01-23T10:04:14.633Z,968.87
2018-01-23T10:05:19.193Z,968.87
2018-01-23T10:07:04.974Z,968.90
2018-01-23T10:08:05.922Z,968.89
2018-01-23T10:20:43.129Z,969.01
2018-01-23T10:21:51.138Z,968.99
2018-01-23T10:23:41.290Z,969.03
2018-01-23T10:24:38.414Z,968.96
2018-01-23T10:29:57.557Z,968.96
2018-01-23T10:30:58.510Z,968.96
2018-01-23T10:32:52.366Z,969.03
2018-01-23T10:37:19.954Z,969.11
2018-01-23T10:38:15.513Z,969.13
2018-01-23T10:40:09.206Z,969.18
2018-01-23T10:41:09.152Z,969.13
2018-01-23T10:43:03.766Z,969.21
2018-01-23T10:44:03.466Z,969.23
2018-01-23T10:45:57.981Z,969.20
2018-01-23T10:46:58.606Z,969.21
2018-01-23T10:48:55.031Z,969.21
2018-01-23T10:49:53.154Z,969.25
2018-01-23T10:51:47.734Z,969.28
2018-01-23T10:52:47.702Z,969.22
2018-01-23T10:53:47.933Z,969.22
2018-01-23T10:54:47.547Z,969.25
2018-01-23T10:55:47.676Z,969.29
2018-01-23T10:56:47.557Z,969.26
2018-01-23T10:57:47.458Z,969.28
2018-01-23T10:58:47.450Z,969.29
2018-01-23T10:59:47.447Z,969.28
2018-01-23T11:00:47.440Z,969.29
2018-01-23T11:01:47.439Z,969.30
2018-01-23T11:02:47.433Z,969.32
2018-01-23T11:03:47.445Z,969.29
2018-01-23T11:04:47.430Z,969.26
2018-01-23T11:05:47.425Z,969.32
2018-01-23T11:06:47.483Z,969.32
2018-01-23T11:07:47.426Z,969.30
2018-01-23T11:08:47.404Z,969.30
2018-01-23T11:09:47.406Z,969.27
2018-01-23T11:10:47.398Z,969.24
2018-01-23T11:11:47.405Z,969.27
2018-01-23T11:12:47.384Z,969.24
2018-01-23T11:13:47.375Z,969.24
2018-01-23T11:14:47.369Z,969.18
2018-01-23T11:15:47.366Z,969.24
2018-01-23T11:16:47.365Z,969.24
2018-01-23T11:17:47.383Z,969.20
2018-01-23T11:18:47.382Z,969.23
2018-01-23T11:19:47.352Z,969.26
2018-01-23T11:22:29.239Z,969.29
2018-01-23T11:23:29.178Z,969.26
2018-01-23T11:25:23.559Z,969.25
2018-01-23T11:26:23.546Z,969.25
2018-01-23T11:28:17.926Z,969.20
2018-01-23T11:29:17.947Z,969.23
2018-01-23T11:31:12.519Z,969.24
2018-01-23T11:32:12.265Z,969.15
2018-01-23T11:34:06.677Z,969.17
2018-01-23T11:35:06.609Z,969.21
2018-01-23T11:37:01.029Z,969.21
2018-01-23T11:38:00.979Z,969.21
2018-01-23T11:41:42.333Z,969.23
2018-01-23T11:42:43.024Z,969.19
2018-01-23T11:44:04.473Z,969.18
2018-01-23T11:52:47.455Z,969.12
2018-01-23T11:53:48.027Z,969.15
2018-01-23T11:55:43.121Z,969.13
2018-01-23T11:56:44.042Z,969.09
2018-01-23T11:57:42.922Z,969.08
2018-01-23T11:58:42.838Z,969.09
2018-01-23T11:59:43.059Z,969.15
2018-01-23T12:02:45.686Z,969.11
2018-01-23T12:03:27.275Z,969.15
2018-01-23T12:04:27.176Z,969.15
2018-01-23T12:05:29.127Z,969.11
2018-01-23T12:06:29.996Z,969.08
2018-01-23T12:07:57.184Z,969.09
2018-01-23T12:09:37.190Z,969.05
2018-01-23T12:12:28.590Z,969.04
2018-01-23T12:15:17.599Z,969.05
2018-01-23T12:16:12.996Z,969.00
2018-01-23T12:17:12.722Z,969.04
2018-01-23T12:37:29.133Z,968.93
2018-01-23T12:38:37.776Z,968.97
2018-01-23T12:40:23.747Z,968.94
2018-01-23T12:41:23.991Z,968.97
2018-01-23T12:43:18.909Z,968.95
2018-01-23T12:44:18.923Z,968.94
2018-01-23T12:45:18.778Z,968.92
2018-01-23T12:46:20.429Z,968.93
2018-01-23T12:47:18.610Z,968.96
2018-01-23T12:48:18.625Z,968.95
2018-01-23T12:49:18.589Z,968.92
2018-01-23T12:50:18.810Z,968.96
2018-01-23T12:51:18.614Z,968.96
2018-01-23T12:52:18.588Z,968.90
2018-01-23T12:53:18.581Z,969.00
2018-01-23T12:54:18.592Z,968.94
2018-01-23T12:55:18.595Z,968.89
2018-01-23T12:56:21.574Z,968.89
2018-01-23T12:58:44.683Z,968.90
2018-01-23T12:59:44.607Z,968.90
2018-01-23T13:02:06.428Z,968.91
2018-01-23T13:03:04.407Z,968.87
2018-01-23T13:04:04.408Z,968.85
2018-01-23T13:05:04.526Z,968.82
2018-01-23T13:06:04.475Z,968.87
2018-01-23T13:07:04.362Z,968.80
2018-01-23T13:08:04.359Z,968.81
2018-01-23T13:09:04.355Z,968.83
2018-01-23T13:10:04.352Z,968.83
2018-01-23T13:11:04.349Z,968.85
2018-01-23T13:12:04.346Z,968.83
2018-01-23T13:13:04.346Z,968.81
2018-01-23T13:14:04.337Z,968.80
2018-01-23T13:15:04.337Z,968.81
2018-01-23T13:16:04.334Z,968.78
2018-01-23T13:17:04.426Z,968.82
2018-01-23T13:18:53.887Z,968.77
2018-01-23T13:20:03.068Z,968.75
2018-01-23T13:21:10.636Z,968.75
2018-01-23T13:22:09.747Z,968.69
2018-01-23T13:23:56.639Z,968.67
2018-01-23T13:24:56.584Z,968.62
2018-01-23T13:25:56.343Z,968.66
2018-01-23T13:26:56.420Z,968.65
2018-01-23T13:27:56.184Z,968.64
2018-01-23T13:28:58.121Z,968.61
2018-01-23T13:29:56.190Z,968.63
2018-01-23T13:30:58.178Z,968.67
2018-01-23T13:31:56.146Z,968.63
2018-01-23T13:32:56.165Z,968.67
2018-01-23T13:33:56.130Z,968.67
2018-01-23T13:34:56.131Z,968.60
2018-01-23T13:35:56.122Z,968.61
2018-01-23T13:36:56.119Z,968.63
2018-01-23T13:37:57.486Z,968.65
2018-01-23T13:38:58.737Z,968.61
2018-01-23T13:39:56.119Z,968.59
2018-01-23T13:40:56.105Z,968.58
2018-01-23T13:41:56.102Z,968.53
2018-01-23T13:42:56.162Z,968.52
2018-01-23T13:43:56.132Z,968.54
2018-01-23T13:44:56.090Z,968.55
2018-01-23T13:45:56.090Z,968.53
2018-01-23T13:46:56.085Z,968.50
2018-01-23T13:47:56.077Z,968.50
2018-01-23T13:48:56.084Z,968.46
2018-01-23T13:49:56.075Z,968.50
2018-01-23T13:50:57.154Z,968.50
2018-01-23T13:51:57.925Z,968.52
2018-01-23T13:52:56.080Z,968.49
2018-01-23T13:53:56.364Z,968.53
2018-01-23T13:54:57.926Z,968.46
2018-01-23T13:55:56.143Z,968.54
2018-01-23T13:56:56.048Z,968.51
2018-01-23T13:57:56.041Z,968.59
2018-01-23T13:58:56.037Z,968.59
2018-01-23T14:00:15.153Z,968.63
2018-01-23T14:01:50.501Z,968.57
2018-01-23T14:02:50.460Z,968.56